This is the latest recevied weather packets stored in our database for station/object CX2SA-13. If no packets are shown the sender has not sent any weather packets the latest 10 day(s).
| Time | Temp. | Humidity | Pressure | Rain* | Wind** | Luminosity | Snow |
|---|---|---|---|---|---|---|---|
| 1777570185 | 28.33° C | 45% | 1011.5 hPa | 0 mm | - | - | - |
| 1777569284 | 27.78° C | 45% | 1011.8 hPa | 0 mm | - | - | - |
| 1777568385 | 27.78° C | 45% | 1011.8 hPa | 0 mm | - | - | - |
| 1777567485 | 27.22° C | 46% | 1012.1 hPa | 0 mm | - | - | - |
| 1777566584 | 27.22° C | 48% | 1012.5 hPa | 0 mm | - | - | - |
| 1777565685 | 26.67° C | 48% | 1012.5 hPa | 0 mm | - | - | - |
| 1777564785 | 26.11° C | 49% | 1012.5 hPa | 0 mm | - | - | - |
| 1777563884 | 26.67° C | 50% | 1012.5 hPa | 0 mm | - | - | - |
| 1777562985 | 25.56° C | 53% | 1013.2 hPa | 0 mm | - | - | - |
| 1777562085 | 25° C | 55% | 1013.2 hPa | 0 mm | - | - | - |
| 1777561184 | 25° C | 54% | 1013.5 hPa | 0 mm | - | - | - |
| 1777560284 | 24.44° C | 56% | 1013.5 hPa | 0 mm | - | - | - |
| 1777559385 | 23.89° C | 57% | 1013.8 hPa | 0 mm | - | - | - |
| 1777558484 | 23.33° C | 59% | 1013.5 hPa | 0 mm | - | - | - |
| 1777557585 | 23.33° C | 60% | 1013.5 hPa | 0 mm | - | - | - |
| 1777556685 | 21.67° C | 64% | 1013.5 hPa | 0 mm | - | - | - |
| 1777555784 | 22.22° C | 64% | 1013.5 hPa | 0 mm | - | - | - |
| 1777554885 | 21.67° C | 65% | 1013.5 hPa | 0 mm | - | - | - |
| 1777553985 | 20.56° C | 69% | 1013.5 hPa | 0 mm | - | - | - |
| 1777553084 | 19.44° C | 74% | 1013.5 hPa | 0 mm | - | - | - |
| 1777552184 | 18.33° C | 77% | 1013.5 hPa | 0 mm | - | - | - |
| 1777551285 | 17.78° C | 81% | 1013.2 hPa | 0 mm | - | - | - |
| 1777550384 | 16.67° C | 84% | 1013.5 hPa | 0 mm | - | - | - |
| 1777549485 | 16.11° C | 86% | 1013.2 hPa | 0 mm | - | - | - |
| 1777548585 | 15° C | 88% | 1013.2 hPa | 0 mm | - | - | - |
* Rain since midnight (hover to see other rain measurements)
** Current wind speed in m/s (hover to see current wind gust speed)